Tracy, Missouri
Current Conditions -  °F | °C
As of 2:53 AM on Saturday 20 Dec 2014 (Local Time) from KMCI Reporting Station
Haze Haze  
Wind Chill: 32°   Ceiling: 1200
Heat Index: 32°   Visibility: 5mi
Dew Point: 31°   Wind: 0mph
Humidity: 96%   Direction: NA
Pressure: 30.2"   Gusts: NA
Location:  39.3588°N, 94.8136°W
Report Text: KMCI 200853Z 00000KT 5SM BR OVC012 00/M01 A3020 RMK AO2 SLP234 60000 I3000 T00001006 55003 $
Loading
Personal Weather Stations






























Interactive Weather Map New forecast layout! Learn more

10-Day Weather Forecast

Advertisements
Track Severe Weather on mobile